Time;durP1;ratioP1;P1;durP2;ratioP2;P2;SDS_P1;SDS_P2;PMS_P1;PMS_P2;Temp;Humidity;BMP_temperature;BMP_pressure;BME280_temperature;BME280_humidity;BME280_pressure;Samples;Min_cycle;Max_cycle;Signal;HPM_P1;HPM_P2
2023/05/31 00:00:33;;;;;;;5.50;5.10;;;;;;;15.57;79.38;100231.33;109970;1273;138300;-81
2023/05/31 00:03:01;;;;;;;5.50;5.00;;;;;;;15.55;79.68;100232.13;110335;1278;22212;-81
2023/05/31 00:05:28;;;;;;;6.20;5.60;;;;;;;15.51;79.94;100236.68;110167;1274;137124;-81
2023/05/31 00:07:55;;;;;;;7.90;6.70;;;;;;;15.47;80.10;100239.23;110109;1260;22235;-79
2023/05/31 00:10:22;;;;;;;9.20;6.50;;;;;;;15.42;80.28;100240.86;109954;1268;138156;-80
2023/05/31 00:12:50;;;;;;;7.60;5.60;;;;;;;15.37;80.57;100240.29;110003;1274;138746;-80
2023/05/31 00:15:17;;;;;;;5.80;5.30;;;;;;;15.34;81.40;100238.52;110122;1277;22962;-80
2023/05/31 00:17:45;;;;;;;6.90;5.40;;;;;;;15.37;81.14;100237.90;109958;1273;138171;-81
2023/05/31 00:20:18;;;;;;;8.30;6.50;;;;;;;15.39;81.02;100240.81;109914;1271;139651;-81
2023/05/31 00:22:45;;;;;;;13.40;6.70;;;;;;;15.38;80.73;100240.15;110017;1261;22236;-80
2023/05/31 00:25:12;;;;;;;6.20;5.60;;;;;;;15.36;80.90;100241.73;109918;1278;138327;-80
2023/05/31 00:27:40;;;;;;;5.80;5.30;;;;;;;15.33;81.33;100243.05;110098;1272;22829;-79
2023/05/31 00:30:08;;;;;;;6.10;5.50;;;;;;;15.31;81.45;100247.05;109977;1278;138495;-80
2023/05/31 00:32:36;;;;;;;6.00;5.40;;;;;;;15.31;81.44;100245.60;109979;1278;139077;-79
2023/05/31 00:35:04;;;;;;;6.00;4.90;;;;;;;15.33;80.94;100247.15;110079;1278;22163;-81
2023/05/31 00:37:36;;;;;;;5.70;5.30;;;;;;;15.35;80.75;100245.60;109974;1272;138037;-79
2023/05/31 00:40:05;;;;;;;5.30;4.80;;;;;;;15.37;80.71;100247.48;109943;1273;139592;-79
2023/05/31 00:42:33;;;;;;;6.10;4.70;;;;;;;15.38;80.35;100246.77;110062;1272;22207;-79
2023/05/31 00:45:01;;;;;;;6.20;5.60;;;;;;;15.43;80.32;100248.79;109999;1271;137175;-80
2023/05/31 00:47:28;;;;;;;5.70;5.30;;;;;;;15.50;80.22;100251.19;110026;1274;22108;-81
2023/05/31 00:49:56;;;;;;;8.60;5.70;;;;;;;15.57;80.10;100252.80;109997;1257;139610;-81
2023/05/31 00:52:26;;;;;;;5.70;4.80;;;;;;;15.64;79.79;100252.63;110027;1270;139724;-76
2023/05/31 00:54:53;;;;;;;4.40;4.00;;;;;;;15.70;79.61;100252.61;110019;1278;22986;-77
2023/05/31 00:57:21;;;;;;;6.10;4.80;;;;;;;15.75;79.38;100250.79;110081;1278;137588;-81
2023/05/31 00:59:49;;;;;;;7.30;5.80;;;;;;;15.82;78.83;100249.73;110262;1258;22805;-80
2023/05/31 01:02:18;;;;;;;6.20;4.40;;;;;;;15.87;79.26;100251.51;110077;1272;138450;-76
2023/05/31 01:04:46;;;;;;;4.60;4.20;;;;;;;15.92;79.60;100252.61;110038;1260;138201;-73
2023/05/31 01:07:13;;;;;;;6.20;5.10;;;;;;;15.92;79.61;100254.88;110139;1271;22193;-81
2023/05/31 01:09:42;;;;;;;8.10;4.80;;;;;;;15.90;79.54;100253.37;110046;1275;139158;-80
2023/05/31 01:12:29;;;;;;;6.20;4.40;;;;;;;15.89;79.60;100256.28;110009;1255;138151;-80
2023/05/31 01:15:07;;;;;;;5.70;4.70;;;;;;;15.86;80.04;100258.10;110040;1272;22211;-78
2023/05/31 01:17:46;;;;;;;7.90;5.00;;;;;;;15.81;80.43;100258.29;109988;1274;138475;-80
2023/05/31 01:20:17;;;;;;;4.70;4.30;;;;;;;15.80;81.26;100260.75;109997;1273;139476;-79
2023/05/31 01:23:01;;;;;;;4.10;3.80;;;;;;;15.82;81.49;100261.50;110071;1279;22252;-80
2023/05/31 01:25:46;;;;;;;6.40;4.80;;;;;;;15.82;81.65;100263.61;109995;1277;139164;-76
2023/05/31 01:28:16;;;;;;;10.40;4.50;;;;;;;15.78;81.66;100264.36;110061;1272;137983;-81
2023/05/31 01:30:45;;;;;;;5.50;5.00;;;;;;;15.74;82.19;100265.19;110108;1278;22988;-80
2023/05/31 01:33:12;;;;;;;4.90;4.50;;;;;;;15.71;82.42;100268.00;110110;1271;138578;-77
2023/05/31 01:35:40;;;;;;;5.10;4.60;;;;;;;15.68;82.16;100270.27;110300;1272;22084;-77
2023/05/31 01:38:07;;;;;;;4.30;3.90;;;;;;;15.68;82.01;100269.85;109986;1271;139245;-78
2023/05/31 01:40:35;;;;;;;7.30;4.80;;;;;;;15.69;81.61;100272.27;109971;1271;138657;-78
2023/05/31 01:43:04;;;;;;;4.30;3.50;;;;;;;15.66;81.11;100275.04;110239;1274;22384;-77
2023/05/31 01:45:33;;;;;;;4.50;3.70;;;;;;;15.62;81.56;100278.80;110103;1256;137709;-79
2023/05/31 01:48:05;;;;;;;5.30;4.40;;;;;;;15.58;81.36;100279.34;110096;1259;137853;-75
2023/05/31 01:50:35;;;;;;;5.40;4.40;;;;;;;15.54;81.58;100282.59;110047;1273;22202;-79
2023/05/31 01:53:06;;;;;;;4.30;3.90;;;;;;;15.53;81.52;100284.22;110105;1270;138433;-75
2023/05/31 01:55:34;;;;;;;4.10;3.70;;;;;;;15.52;80.84;100290.80;110310;1256;22265;-79
2023/05/31 01:58:02;;;;;;;5.30;4.80;;;;;;;15.51;79.35;100293.63;110014;1270;138789;-79
2023/05/31 02:00:31;;;;;;;4.70;4.40;;;;;;;15.49;77.86;100291.95;110095;1258;140599;-79
2023/05/31 02:02:59;;;;;;;5.90;3.90;;;;;;;15.48;76.67;100295.64;110069;1272;22990;-79
2023/05/31 02:05:27;;;;;;;5.70;5.30;;;;;;;15.53;74.97;100299.69;109910;1270;137834;-79
2023/05/31 02:07:54;;;;;;;10.30;7.20;;;;;;;15.61;72.32;100299.59;110089;1270;24040;-79
2023/05/31 02:10:21;;;;;;;9.10;7.30;;;;;;;15.67;70.07;100300.23;110091;1270;137481;-80
2023/05/31 02:12:50;;;;;;;11.50;10.30;;;;;;;15.73;67.63;100299.66;109970;1265;138789;-79
2023/05/31 02:15:19;;;;;;;14.90;9.60;;;;;;;15.79;66.63;100302.88;110095;1260;22262;-80
2023/05/31 02:17:50;;;;;;;20.60;11.20;;;;;;;15.84;65.68;100300.33;110216;1271;138213;-78
2023/05/31 02:20:18;;;;;;;13.40;11.60;;;;;;;15.89;65.37;100296.42;110033;1273;139311;-80
2023/05/31 02:22:47;;;;;;;17.50;12.40;;;;;;;15.93;65.26;100297.63;110250;1278;22875;-74
2023/05/31 02:25:15;;;;;;;15.60;11.40;;;;;;;16.02;65.06;100297.52;109989;1278;138152;-79
2023/05/31 02:27:43;;;;;;;16.60;12.30;;;;;;;16.19;64.75;100294.38;110142;1272;22478;-83
2023/05/31 02:30:10;;;;;;;16.80;13.40;;;;;;;16.38;64.28;100296.99;110010;1270;139116;-82
2023/05/31 02:32:38;;;;;;;15.30;13.70;;;;;;;16.49;63.74;100304.09;110088;1271;138514;-81
2023/05/31 02:35:07;;;;;;;18.30;13.50;;;;;;;16.59;63.52;100309.77;110199;1271;22331;-79
2023/05/31 02:37:37;;;;;;;23.30;16.50;;;;;;;16.73;63.08;100311.60;110165;1277;137719;-80
2023/05/31 02:40:08;;;;;;;16.50;14.80;;;;;;;16.90;62.38;100317.80;110020;1277;138450;-80
2023/05/31 02:42:37;;;;;;;19.70;17.20;;;;;;;17.03;61.65;100318.35;110181;1257;22141;-80
2023/05/31 02:45:06;;;;;;;19.70;16.00;;;;;;;17.07;61.05;100321.84;110140;1271;139032;-79
2023/05/31 02:47:36;;;;;;;20.90;16.50;;;;;;;17.04;61.08;100318.64;110055;1273;22706;-78
2023/05/31 02:50:07;;;;;;;19.00;16.10;;;;;;;17.08;61.65;100323.71;110128;1254;139346;-77
2023/05/31 02:52:38;;;;;;;20.10;16.90;;;;;;;17.20;61.76;100324.88;110121;1278;138890;-78
2023/05/31 02:55:13;;;;;;;19.10;16.60;;;;;;;17.50;60.97;100322.83;110018;1261;22800;-77
2023/05/31 02:58:10;;;;;;;17.00;15.10;;;;;;;17.91;60.05;100331.92;109970;1270;138342;-77
2023/05/31 03:00:39;;;;;;;17.30;13.90;;;;;;;18.31;59.03;100334.48;110077;1270;138239;-77
2023/05/31 03:03:06;;;;;;;18.30;13.10;;;;;;;18.64;57.67;100326.16;110026;1271;22295;-77
2023/05/31 03:05:44;;;;;;;19.70;13.10;;;;;;;19.00;56.74;100338.27;110021;1268;137563;-78
2023/05/31 03:08:12;;;;;;;17.40;12.10;;;;;;;19.07;56.77;100344.05;109981;1273;138123;-76
2023/05/31 03:10:40;;;;;;;11.90;9.50;;;;;;;19.02;57.07;100345.91;110079;1279;22093;-78
2023/05/31 03:13:07;;;;;;;9.70;6.40;;;;;;;18.93;57.13;100345.60;110026;1260;139887;-77
2023/05/31 03:15:35;;;;;;;10.60;5.40;;;;;;;18.81;56.91;100337.77;110257;1270;22289;-77
2023/05/31 03:18:03;;;;;;;5.60;4.70;;;;;;;19.03;56.03;100349.61;110028;1263;138269;-76
2023/05/31 03:20:32;;;;;;;3.20;2.90;;;;;;;19.20;53.89;100347.90;110071;1271;139952;-74
2023/05/31 03:23:00;;;;;;;4.40;3.50;;;;;;;19.24;53.36;100352.45;110131;1274;22906;-76
2023/05/31 03:25:27;;;;;;;5.40;3.30;;;;;;;19.30;52.99;100355.23;109998;1277;139573;-76
2023/05/31 03:27:57;;;;;;;4.90;3.50;;;;;;;19.24;52.75;100359.69;110237;1278;22217;-76
2023/05/31 03:30:24;;;;;;;3.80;2.70;;;;;;;19.15;52.92;100364.67;110036;1270;137419;-77
2023/05/31 03:32:55;;;;;;;10.60;3.80;;;;;;;19.03;53.14;100364.80;110139;1271;139210;-75
2023/05/31 03:35:23;;;;;;;3.50;2.50;;;;;;;18.92;53.62;100372.80;110080;1270;23088;-78
2023/05/31 03:37:53;;;;;;;3.60;3.30;;;;;;;18.98;53.80;100377.98;110001;1273;138086;-79
2023/05/31 03:40:20;;;;;;;3.10;2.50;;;;;;;19.13;53.38;100380.09;109993;1278;138781;-76
2023/05/31 03:42:48;;;;;;;3.00;2.60;;;;;;;19.32;52.69;100384.46;110107;1272;22344;-76
2023/05/31 03:45:15;;;;;;;6.60;2.70;;;;;;;19.42;52.19;100386.30;110090;1272;137920;-77
2023/05/31 03:47:42;;;;;;;7.10;2.70;;;;;;;19.53;52.25;100389.06;110221;1269;22138;-76
2023/05/31 03:50:10;;;;;;;4.40;2.40;;;;;;;19.68;51.61;100384.36;110147;1271;138869;-79
2023/05/31 03:52:38;;;;;;;3.80;2.70;;;;;;;19.70;51.20;100391.48;110096;1275;137870;-78
2023/05/31 03:55:06;;;;;;;3.20;2.90;;;;;;;19.59;51.31;100390.94;110247;1277;22222;-78
2023/05/31 03:57:33;;;;;;;4.70;2.50;;;;;;;19.55;51.45;100392.13;109983;1276;138570;-77
2023/05/31 04:00:02;;;;;;;6.20;2.60;;;;;;;19.44;51.39;100384.54;110061;1277;22348;-78
2023/05/31 04:02:39;;;;;;;5.10;2.50;;;;;;;19.49;51.51;100398.79;109914;1269;22388;-78
2023/05/31 04:05:18;;;;;;;2.80;2.40;;;;;;;19.58;51.63;100400.55;109732;1271;137552;-68
2023/05/31 04:07:46;;;;;;;3.70;2.00;;;;;;;19.65;50.93;100395.91;109976;1270;22334;-73
2023/05/31 04:10:13;;;;;;;4.20;1.90;;;;;;;19.80;50.70;100404.05;109905;1271;138202;-76
2023/05/31 04:12:41;;;;;;;7.10;2.50;;;;;;;20.01;50.01;100408.40;109820;1270;137840;-81
2023/05/31 04:15:09;;;;;;;3.80;2.40;;;;;;;20.11;49.58;100407.09;109939;1258;23040;-69
2023/05/31 04:17:36;;;;;;;2.90;2.20;;;;;;;20.25;49.27;100414.16;109773;1270;138492;-70
2023/05/31 04:20:10;;;;;;;2.00;1.90;;;;;;;20.35;48.96;100414.08;109857;1270;138762;-72
2023/05/31 04:22:38;;;;;;;6.10;1.70;;;;;;;20.48;48.61;100422.99;110027;1271;22329;-75
2023/05/31 04:25:09;;;;;;;5.10;2.50;;;;;;;20.64;48.06;100424.35;109845;1270;138324;-72
2023/05/31 04:27:40;;;;;;;2.60;2.00;;;;;;;20.83;47.39;100419.48;110001;1270;22066;-77
2023/05/31 04:30:08;;;;;;;2.20;2.00;;;;;;;20.83;47.36;100420.39;109853;1272;138249;-72
2023/05/31 04:32:36;;;;;;;6.20;2.00;;;;;;;20.69;47.54;100421.48;109794;1270;138910;-74
2023/05/31 04:35:05;;;;;;;4.80;2.10;;;;;;;20.65;47.90;100419.59;110090;1257;22339;-69
2023/05/31 04:37:35;;;;;;;4.40;2.00;;;;;;;20.77;48.06;100421.19;109853;1260;137941;-73
2023/05/31 04:40:08;;;;;;;5.10;2.50;;;;;;;21.08;47.15;100426.13;109815;1271;138138;-70
2023/05/31 04:42:37;;;;;;;6.70;2.40;;;;;;;21.28;46.78;100422.29;110030;1270;22317;-71
2023/05/31 04:45:07;;;;;;;6.00;1.90;;;;;;;21.42;46.13;100428.16;109868;1270;138130;-67
2023/05/31 04:47:41;;;;;;;2.30;1.50;;;;;;;21.33;46.02;100434.91;109936;1270;23120;-66
2023/05/31 04:50:10;;;;;;;5.90;1.90;;;;;;;20.89;47.03;100437.85;109790;1270;139789;-67
2023/05/31 04:52:40;;;;;;;6.50;2.00;;;;;;;20.54;48.25;100439.59;109839;1270;137879;-68
2023/05/31 04:55:08;;;;;;;2.10;1.80;;;;;;;20.29;48.96;100436.34;110113;1270;22347;-64
2023/05/31 04:57:36;;;;;;;2.40;2.10;;;;;;;19.95;49.94;100439.70;109920;1270;139058;-63
2023/05/31 05:00:09;;;;;;;5.30;1.90;;;;;;;19.59;51.36;100440.91;109802;1270;138997;-64
2023/05/31 05:02:40;;;;;;;2.20;2.00;;;;;;;19.32;52.31;100449.05;110023;1270;22996;-71
2023/05/31 05:05:07;;;;;;;2.40;1.30;;;;;;;19.09;53.24;100452.75;109828;1271;139664;-71
2023/05/31 05:07:36;;;;;;;5.60;1.50;;;;;;;19.04;53.59;100448.27;109926;1261;22360;-68
2023/05/31 05:10:04;;;;;;;5.70;1.80;;;;;;;19.23;53.46;100449.98;109855;1270;137521;-70
2023/05/31 05:12:32;;;;;;;11.90;1.90;;;;;;;19.33;53.20;100436.31;109884;1270;138334;-64
2023/05/31 05:14:59;;;;;;;7.90;2.30;;;;;;;19.53;52.76;100445.94;109893;1270;22321;-72
2023/05/31 05:17:27;;;;;;;9.50;2.00;;;;;;;19.85;51.90;100447.52;109817;1270;139256;-70
2023/05/31 05:19:55;;;;;;;4.90;1.60;;;;;;;20.18;50.80;100445.16;110029;1270;22402;-69
2023/05/31 05:22:22;;;;;;;3.40;1.30;;;;;;;20.28;50.43;100439.90;109841;1270;138424;-62
2023/05/31 05:24:50;;;;;;;5.50;1.80;;;;;;;20.27;50.33;100441.63;109922;1270;138036;-62
2023/05/31 05:27:17;;;;;;;3.20;1.10;;;;;;;20.15;50.77;100440.11;109861;1271;22097;-62
2023/05/31 05:29:45;;;;;;;4.00;1.50;;;;;;;20.08;51.02;100436.49;109889;1270;137819;-62
2023/05/31 05:32:13;;;;;;;2.90;1.50;;;;;;;20.09;51.23;100442.83;109751;1270;139223;-62
2023/05/31 05:34:41;;;;;;;2.80;1.70;;;;;;;20.20;50.91;100446.39;109913;1270;22194;-62
2023/05/31 05:37:09;;;;;;;3.60;1.30;;;;;;;20.33;50.53;100443.37;109773;1270;139152;-63
2023/05/31 05:39:36;;;;;;;4.70;1.00;;;;;;;20.57;50.08;100448.30;109849;1264;22341;-62
2023/05/31 05:42:04;;;;;;;2.70;1.60;;;;;;;20.84;49.37;100445.38;109894;1271;138136;-63
2023/05/31 05:44:32;;;;;;;4.40;1.30;;;;;;;21.09;48.70;100450.57;109829;1273;139254;-61
2023/05/31 05:47:02;;;;;;;4.10;1.60;;;;;;;21.15;48.23;100455.84;109901;1270;22372;-61
2023/05/31 05:49:29;;;;;;;3.10;1.00;;;;;;;20.98;48.33;100453.98;109874;1270;140793;-61
2023/05/31 05:51:57;;;;;;;2.10;1.10;;;;;;;20.80;48.82;100453.62;109934;1271;22391;-62
2023/05/31 05:54:26;;;;;;;6.00;1.00;;;;;;;20.70;48.99;100448.52;109857;1270;139472;-63
2023/05/31 05:56:53;;;;;;;3.30;1.10;;;;;;;20.66;49.13;100449.39;109805;1271;138904;-62
2023/05/31 05:59:22;;;;;;;1.80;0.70;;;;;;;20.75;48.80;100440.56;109983;1272;22325;-63
2023/05/31 06:01:57;;;;;;;2.40;0.90;;;;;;;20.82;48.03;100442.48;109908;1271;137912;-62
2023/05/31 06:04:25;;;;;;;1.80;1.00;;;;;;;20.77;48.10;100439.73;109886;1272;138082;-62
2023/05/31 06:06:52;;;;;;;7.10;0.70;;;;;;;20.84;48.05;100437.80;110037;1270;22462;-62
2023/05/31 06:09:21;;;;;;;4.80;0.90;;;;;;;21.01;47.50;100440.79;109896;1271;138995;-61
2023/05/31 06:11:48;;;;;;;3.30;0.90;;;;;;;21.06;47.18;100442.85;109916;1273;23043;-62
2023/05/31 06:14:16;;;;;;;3.70;1.10;;;;;;;21.11;47.00;100448.38;109919;1270;137832;-62
2023/05/31 06:16:46;;;;;;;5.80;1.20;;;;;;;21.28;46.64;100452.33;109798;1272;138049;-61
2023/05/31 06:19:13;;;;;;;1.60;0.70;;;;;;;21.48;46.46;100448.64;110034;1274;22345;-63
2023/05/31 06:21:41;;;;;;;7.40;1.10;;;;;;;21.63;45.59;100448.16;109910;1274;139399;-63
2023/05/31 06:24:08;;;;;;;2.40;0.70;;;;;;;21.73;45.08;100452.69;109755;1270;138126;-63
2023/05/31 06:26:37;;;;;;;4.70;1.20;;;;;;;21.73;44.92;100450.14;109928;1270;22321;-61
2023/05/31 06:29:05;;;;;;;3.10;0.60;;;;;;;21.82;44.83;100453.03;109857;1271;138583;-65
2023/05/31 06:31:51;;;;;;;1.70;0.70;;;;;;;22.02;43.98;100450.11;109978;1270;22307;-64
2023/05/31 06:34:19;;;;;;;2.70;0.90;;;;;;;22.05;43.67;100451.98;109746;1270;137369;-64
2023/05/31 06:36:47;;;;;;;2.90;0.60;;;;;;;22.13;43.41;100454.20;109816;1270;138164;-63
2023/05/31 06:39:14;;;;;;;2.50;0.70;;;;;;;22.23;42.97;100454.98;109923;1270;23141;-63
2023/05/31 06:41:42;;;;;;;6.30;0.80;;;;;;;22.21;42.64;100456.86;109804;1271;138061;-62
2023/05/31 06:44:28;;;;;;;3.60;0.90;;;;;;;22.21;42.25;100458.23;109923;1271;138418;-63
2023/05/31 06:47:06;;;;;;;2.20;0.60;;;;;;;22.26;41.55;100461.35;110033;1270;22432;-62
2023/05/31 06:49:52;;;;;;;1.40;0.60;;;;;;;22.13;42.33;100460.88;109928;1270;138563;-64
2023/05/31 06:52:40;;;;;;;6.20;0.90;;;;;;;22.22;43.28;100458.83;109962;1271;138840;-64
2023/05/31 06:55:26;;;;;;;;;;;;;;;22.46;43.46;100460.06;109917;1264;22468;-63
2023/05/31 06:57:53;;;;;;;2.50;0.70;;;;;;;22.58;43.30;100466.41;109849;1270;124246;-63
2023/05/31 07:00:21;;;;;;;5.20;1.10;;;;;;;22.57;43.33;100464.63;109859;1271;138012;-65
2023/05/31 07:02:48;;;;;;;0.80;0.50;;;;;;;22.60;42.92;100466.33;109992;1270;22334;-63
2023/05/31 07:05:16;;;;;;;4.20;1.00;;;;;;;22.66;42.63;100465.05;109802;1270;139336;-63
2023/05/31 07:07:43;;;;;;;1.70;1.30;;;;;;;22.62;41.89;100458.73;110038;1270;22324;-62
2023/05/31 07:10:11;;;;;;;1.50;0.80;;;;;;;22.47;42.30;100464.14;109863;1274;137855;-64
2023/05/31 07:12:39;;;;;;;1.10;0.90;;;;;;;22.25;42.20;100458.64;109799;1270;138359;-64
2023/05/31 07:15:09;;;;;;;3.50;0.40;;;;;;;22.10;41.71;100456.85;109877;1270;22347;-64
2023/05/31 07:17:36;;;;;;;1.20;0.60;;;;;;;22.10;41.01;100451.36;109865;1263;137649;-65
2023/05/31 07:20:06;;;;;;;2.00;0.70;;;;;;;22.17;40.57;100448.05;109724;1270;139601;-62
2023/05/31 07:22:34;;;;;;;2.70;1.30;;;;;;;22.20;40.34;100449.05;110029;1270;23138;-62
2023/05/31 07:25:03;;;;;;;2.00;0.40;;;;;;;22.30;39.09;100448.36;109989;1269;137951;-63
2023/05/31 07:27:31;;;;;;;7.30;1.00;;;;;;;22.38;37.09;100448.18;110059;1270;22364;-64
2023/05/31 07:29:58;;;;;;;0.80;0.60;;;;;;;22.34;36.90;100453.22;109967;1269;138745;-61
2023/05/31 07:32:26;;;;;;;10.20;0.60;;;;;;;22.31;35.97;100458.35;109889;1270;138526;-64
2023/05/31 07:34:53;;;;;;;1.80;0.50;;;;;;;22.16;35.66;100456.67;110021;1271;22341;-61
2023/05/31 07:37:30;;;;;;;2.20;0.50;;;;;;;21.97;35.32;100460.45;109989;1269;139215;-64
2023/05/31 07:39:59;;;;;;;7.80;0.30;;;;;;;21.83;36.10;100458.19;110051;1260;23177;-63
2023/05/31 07:42:28;;;;;;;1.60;0.30;;;;;;;21.72;36.61;100460.77;109767;1270;137417;-66
2023/05/31 07:44:56;;;;;;;2.80;0.60;;;;;;;21.61;36.60;100461.55;109970;1270;139327;-62
2023/05/31 07:47:26;;;;;;;3.10;0.50;;;;;;;21.51;38.46;100457.73;110084;1271;23208;-62
2023/05/31 07:49:53;;;;;;;4.10;0.40;;;;;;;21.54;37.92;100459.05;109980;1270;137872;-62
2023/05/31 07:52:21;;;;;;;1.20;0.40;;;;;;;21.59;37.72;100458.92;109922;1269;139901;-64
2023/05/31 07:54:49;;;;;;;4.50;1.10;;;;;;;21.61;43.59;100460.67;110008;1256;23225;-62
2023/05/31 07:57:17;;;;;;;8.90;1.10;;;;;;;21.65;47.81;100460.45;109948;1266;138473;-64
2023/05/31 07:59:45;;;;;;;5.50;0.50;;;;;;;21.72;49.05;100461.59;109947;1271;22332;-64
2023/05/31 08:02:13;;;;;;;4.50;1.00;;;;;;;21.76;47.60;100458.54;109939;1271;141826;-61
2023/05/31 08:04:40;;;;;;;3.30;1.00;;;;;;;21.78;47.88;100457.23;109926;1261;138122;-61
2023/05/31 08:07:08;;;;;;;2.30;2.10;;;;;;;21.79;48.58;100453.45;110010;1270;22264;-63
2023/05/31 08:09:36;;;;;;;3.20;1.10;;;;;;;21.75;48.40;100448.75;109900;1271;137709;-62
2023/05/31 08:12:04;;;;;;;3.40;0.80;;;;;;;21.70;48.56;100454.03;109822;1271;138954;-62
2023/05/31 08:14:31;;;;;;;3.50;0.60;;;;;;;21.66;49.51;100458.71;110054;1270;22347;-62
2023/05/31 08:16:58;;;;;;;3.70;1.50;;;;;;;21.66;50.10;100457.95;109885;1271;138071;-63
2023/05/31 08:19:26;;;;;;;3.00;1.30;;;;;;;21.72;49.72;100456.10;110011;1261;22338;-63
2023/05/31 08:21:53;;;;;;;3.20;1.00;;;;;;;21.80;49.09;100454.54;109939;1263;138810;-63
2023/05/31 08:24:21;;;;;;;3.50;0.90;;;;;;;21.84;48.63;100457.60;109923;1260;137952;-63
2023/05/31 08:26:50;;;;;;;2.50;1.00;;;;;;;21.83;48.62;100458.80;110069;1271;23070;-63
2023/05/31 08:29:17;;;;;;;6.20;1.10;;;;;;;21.85;48.25;100465.70;109974;1259;138008;-63
2023/05/31 08:31:44;;;;;;;0.90;0.50;;;;;;;21.90;47.70;100469.05;110045;1271;22318;-65
2023/05/31 08:34:12;;;;;;;2.60;1.10;;;;;;;21.96;47.57;100462.95;109867;1270;138808;-63
2023/05/31 08:36:40;;;;;;;1.50;0.60;;;;;;;21.95;47.12;100459.69;109908;1272;139614;-67
2023/05/31 08:39:08;;;;;;;4.40;0.80;;;;;;;22.04;46.50;100468.54;110066;1271;22400;-63
2023/05/31 08:41:53;;;;;;;1.50;0.60;;;;;;;22.03;45.88;100465.48;109852;1270;138567;-64
2023/05/31 08:44:21;;;;;;;1.90;0.60;;;;;;;21.97;45.78;100463.61;109875;1271;140624;-64
2023/05/31 08:46:48;;;;;;;3.60;1.30;;;;;;;21.92;45.84;100464.00;109914;1257;22343;-62
2023/05/31 08:49:17;;;;;;;3.60;1.20;;;;;;;21.87;45.93;100465.55;109997;1270;139005;-63
2023/05/31 08:51:45;;;;;;;4.90;1.00;;;;;;;21.85;45.75;100462.43;109967;1270;23102;-62
2023/05/31 08:54:13;;;;;;;3.40;1.30;;;;;;;21.87;45.12;100467.34;109909;1270;138209;-63
2023/05/31 08:56:41;;;;;;;3.00;0.90;;;;;;;21.88;43.71;100463.77;109806;1271;138292;-64
2023/05/31 08:59:11;;;;;;;3.50;0.60;;;;;;;21.89;43.74;100462.73;110049;1272;23109;-65
2023/05/31 09:01:39;;;;;;;2.00;0.60;;;;;;;21.93;42.28;100459.73;109961;1271;139203;-62
2023/05/31 09:04:06;;;;;;;0.70;0.50;;;;;;;21.95;41.50;100464.79;109987;1271;137826;-64
2023/05/31 09:06:34;;;;;;;4.90;0.60;;;;;;;21.86;41.33;100455.55;110100;1260;22348;-64
2023/05/31 09:09:02;;;;;;;2.40;0.30;;;;;;;21.83;40.06;100451.14;110022;1271;137809;-63
2023/05/31 09:11:29;;;;;;;1.40;0.30;;;;;;;21.87;39.01;100462.17;110161;1260;23112;-64
2023/05/31 09:13:57;;;;;;;4.80;0.40;;;;;;;21.85;38.16;100455.17;109949;1270;138855;-63
2023/05/31 09:16:25;;;;;;;2.20;0.40;;;;;;;21.85;37.99;100453.27;109953;1270;138377;-63
2023/05/31 09:19:06;;;;;;;3.80;0.40;;;;;;;21.86;37.73;100454.64;110034;1271;23037;-65
2023/05/31 09:21:41;;;;;;;5.30;0.50;;;;;;;21.83;38.25;100452.34;110007;1270;138107;-63
2023/05/31 09:24:10;;;;;;;2.60;0.70;;;;;;;21.80;38.07;100458.70;109947;1262;139038;-64
2023/05/31 09:26:51;;;;;;;5.10;0.60;;;;;;;21.77;37.95;100462.15;110069;1271;23012;-63
2023/05/31 09:29:20;;;;;;;2.50;0.30;;;;;;;21.78;37.63;100465.27;109930;1270;137913;-63
2023/05/31 09:31:48;;;;;;;2.20;0.90;;;;;;;21.76;36.42;100462.11;110075;1270;22333;-63
2023/05/31 09:34:25;;;;;;;5.70;0.80;;;;;;;21.76;35.74;100457.39;109974;1270;137935;-64
2023/05/31 09:37:00;;;;;;;2.50;0.90;;;;;;;21.76;33.72;100462.36;109988;1271;139239;-64
2023/05/31 09:39:28;;;;;;;3.40;1.20;;;;;;;21.75;33.58;100462.15;110128;1269;22323;-63
2023/05/31 09:41:58;;;;;;;5.40;0.30;;;;;;;21.76;32.91;100455.86;109984;1270;137765;-63
2023/05/31 09:44:27;;;;;;;6.40;0.40;;;;;;;21.74;32.03;100467.14;109902;1270;138542;-63
2023/05/31 09:46:56;;;;;;;4.70;0.20;;;;;;;21.77;31.87;100466.34;109950;1270;22339;-62
2023/05/31 09:49:24;;;;;;;4.40;0.40;;;;;;;21.87;31.56;100463.86;109947;1270;139354;-64
2023/05/31 09:51:52;;;;;;;2.60;0.30;;;;;;;21.88;30.77;100468.33;110057;1271;22302;-64
2023/05/31 09:54:25;;;;;;;2.00;0.60;;;;;;;21.79;30.50;100465.20;109963;1271;137501;-63
2023/05/31 09:56:54;;;;;;;3.20;0.60;;;;;;;21.69;30.47;100465.79;109950;1270;137972;-63
2023/05/31 09:59:22;;;;;;;4.10;0.40;;;;;;;21.59;30.40;100462.35;109951;1273;22324;-63
2023/05/31 10:01:50;;;;;;;1.10;0.50;;;;;;;21.46;30.33;100459.35;109892;1270;138196;-65
2023/05/31 10:04:19;;;;;;;1.50;0.20;;;;;;;21.39;30.76;100450.16;110010;1270;138167;-64
2023/05/31 10:06:47;;;;;;;2.50;0.30;;;;;;;21.38;30.85;100450.11;109982;1270;23983;-63
2023/05/31 10:09:15;;;;;;;3.70;1.20;;;;;;;21.39;31.14;100453.52;109772;1270;138141;-64
2023/05/31 10:11:49;;;;;;;1.90;0.20;;;;;;;21.47;31.15;100454.85;110065;1270;22328;-64
2023/05/31 10:14:23;;;;;;;0.70;0.20;;;;;;;21.53;31.28;100445.93;109856;1270;137754;-63
2023/05/31 10:16:54;;;;;;;0.90;0.40;;;;;;;21.64;31.52;100449.80;109874;1272;138933;-64
2023/05/31 10:19:27;;;;;;;2.00;0.70;;;;;;;21.65;31.05;100446.17;110064;1271;23104;-64
2023/05/31 10:21:58;;;;;;;3.10;0.30;;;;;;;21.69;30.95;100449.66;109962;1271;138669;-64
2023/05/31 10:24:33;;;;;;;0.30;0.20;;;;;;;21.59;30.83;100450.35;109972;1272;138174;-63
2023/05/31 10:27:11;;;;;;;1.30;0.60;;;;;;;21.56;31.29;100450.45;110073;1270;22110;-63
2023/05/31 10:29:43;;;;;;;0.50;0.30;;;;;;;21.55;31.01;100450.55;109795;1270;138579;-63
2023/05/31 10:32:18;;;;;;;2.10;0.20;;;;;;;21.57;31.50;100449.25;110024;1270;138421;-64
2023/05/31 10:34:47;;;;;;;1.10;0.10;;;;;;;21.64;31.37;100448.71;109997;1270;22333;-63
2023/05/31 10:37:15;;;;;;;5.00;0.30;;;;;;;21.67;30.93;100447.55;109999;1270;138015;-63
2023/05/31 10:39:55;;;;;;;0.70;0.30;;;;;;;21.70;30.78;100453.60;110062;1271;22284;-62
2023/05/31 10:42:35;;;;;;;1.90;0.20;;;;;;;21.75;30.89;100446.09;109942;1270;138256;-62
2023/05/31 10:45:14;;;;;;;3.10;0.10;;;;;;;21.83;30.78;100447.29;110010;1260;137702;-64
2023/05/31 10:47:57;;;;;;;1.00;0.20;;;;;;;21.87;30.56;100454.04;110120;1271;22350;-61
2023/05/31 10:50:24;;;;;;;3.10;0.20;;;;;;;21.80;30.07;100449.16;110001;1270;138550;-65
2023/05/31 10:52:52;;;;;;;4.70;0.40;;;;;;;21.72;29.70;100450.95;110016;1270;140204;-65
2023/05/31 10:55:22;;;;;;;2.50;0.20;;;;;;;21.67;30.00;100446.73;110148;1270;22145;-63
2023/05/31 10:57:54;;;;;;;3.30;0.20;;;;;;;21.66;30.09;100443.30;110019;1270;138771;-64
2023/05/31 11:00:23;;;;;;;0.80;0.10;;;;;;;21.65;30.28;100446.67;109867;1271;139765;-62
2023/05/31 11:02:58;;;;;;;1.80;0.20;;;;;;;21.66;30.24;100448.85;110130;1272;23031;-61
2023/05/31 11:05:27;;;;;;;1.50;0.10;;;;;;;21.67;29.98;100446.23;109982;1273;139184;-63
2023/05/31 11:07:57;;;;;;;2.70;0.30;;;;;;;21.69;29.66;100450.54;109971;1269;22997;-62
2023/05/31 11:10:32;;;;;;;0.80;0.20;;;;;;;21.70;29.36;100447.89;109896;1270;138373;-64
2023/05/31 11:13:04;;;;;;;1.70;0.40;;;;;;;21.67;28.84;100444.78;109880;1270;137958;-63
2023/05/31 11:15:42;;;;;;;5.50;0.20;;;;;;;21.59;28.86;100447.54;110045;1271;22317;-64
2023/05/31 11:18:15;;;;;;;0.70;0.20;;;;;;;21.50;28.74;100446.54;109903;1271;139523;-63
2023/05/31 11:23:18;;;;;;;3.10;0.40;;;;;;;21.48;29.01;100448.38;103526;1305;545032;-62
2023/05/31 11:26:08;;;;;;;3.10;0.40;;;;;;;21.46;28.77;100443.25;105507;1282;138025;-61